CheckWX is a tool to help pilots better visualize weather data.  It is not intended as a substitute for an official pre-flight weather briefing.

17:06:37 UTC

KHST TAF
Homestead ARB Airport
Homestead, Florida, USA
TAF KHST 111200Z 1112/1218 12006KT 9999 VCSH SCT015 QNH3009INS BECMG 1112/1113 12006KT 9999 VCSH BKN020 QNH3011INS TEMPO 1113/1120 BKN015 BECMG 1120/1121 12006KT 9999 NSW SCT025 QNH3008INS BECMG 1217/1218 09009KT 9999 SCT030 QNH3012INS TX27/1120Z TN22/1210Z

Dec-11@
12:00 UTC

Dec-11 @ 12:00 UTC

Dec-12@
18:00 UTC

Dec-12 @ 18:00 UTC

TAF KHST 111200Z 1112/1218 12006KT 9999 VCSH SCT015 QNH3009INS
Wind
  • 120° at 6 KTS
Cloud Levels
  • Scattered at 1,500' AGL

Dec-11@
12:00 UTC

Dec-11 @ 12:00 UTC

Dec-11@
20:00 UTC

Dec-11 @ 20:00 UTC

BECMG 1112/1113 12006KT 9999 VCSH BKN020 QNH3011INS

Becoming

Becoming Conditions expected by Wed, Dec 11, 2019 @ 13:00 UTC

Wind
  • 120° at 6 KTS
Cloud Levels
  • Broken at 2,000' AGL

Dec-11@
13:00 UTC

Dec-11 @ 13:00 UTC

Dec-11@
20:00 UTC

Dec-11 @ 20:00 UTC

TEMPO 1113/1120 BKN015

Temporary

Temporary Changes expected for less than half the time period

Cloud Levels
  • Broken at 1,500' AGL

Dec-11@
20:00 UTC

Dec-11 @ 20:00 UTC

Dec-12@
17:00 UTC

Dec-12 @ 17:00 UTC

BECMG 1120/1121 12006KT 9999 NSW SCT025 QNH3008INS

Becoming

Becoming Conditions expected by Wed, Dec 11, 2019 @ 21:00 UTC

Wind
  • 120° at 6 KTS
Conditions
No significant weather
Cloud Levels
  • Scattered at 2,500' AGL

Dec-12@
17:00 UTC

Dec-12 @ 17:00 UTC

Dec-12@
18:00 UTC

Dec-12 @ 18:00 UTC

BECMG 1217/1218 09009KT 9999 SCT030 QNH3012INS TX27/1120Z TN22/1210Z

Becoming

Becoming Conditions expected by Thu, Dec 12, 2019 @ 18:00 UTC

Wind
  • 090° at 9 KTS
Conditions
No significant weather
Cloud Levels
  • Scattered at 3,000' AGL